Time;durP1;ratioP1;P1;durP2;ratioP2;P2;SDS_P1;SDS_P2;PMS_P1;PMS_P2;Temp;Humidity;BMP_temperature;BMP_pressure;BME280_temperature;BME280_humidity;BME280_pressure;Samples;Min_cycle;Max_cycle;Signal;HPM_P1;HPM_P2
2024/03/11 00:02:23;;;;;;;;;;;23.30;38.20;;;;;;5053089;28;19928;-62
2024/03/11 00:04:50;;;;;;;;;;;23.30;38.20;;;;;;5053128;28;19977;-62
2024/03/11 00:07:19;;;;;;;;;;;23.20;38.20;;;;;;5053112;28;19979;-61
2024/03/11 00:09:48;;;;;;;;;;;23.30;38.20;;;;;;5053227;28;19929;-61
2024/03/11 00:12:17;;;;;;;;;;;23.20;38.20;;;;;;5052963;28;19924;-62
2024/03/11 00:14:47;;;;;;;;;;;23.30;38.30;;;;;;5052945;28;19924;-62
2024/03/11 00:17:16;;;;;;;;;;;23.20;38.30;;;;;;5052961;28;19925;-61
2024/03/11 00:19:44;;;;;;;;;;;23.20;38.30;;;;;;5053002;28;20016;-62
2024/03/11 00:22:11;;;;;;;;;;;23.20;38.30;;;;;;5052797;28;19929;-62
2024/03/11 00:24:38;;;;;;;;;;;23.20;38.30;;;;;;5052970;28;20449;-62
2024/03/11 00:27:08;;;;;;;;;;;23.20;38.40;;;;;;5053090;28;19932;-62
2024/03/11 00:29:35;;;;;;;;;;;23.20;38.40;;;;;;5052913;28;20402;-62
2024/03/11 00:32:02;;;;;;;;;;;23.20;38.40;;;;;;5052923;28;19931;-62
2024/03/11 00:34:29;;;;;;;;;;;23.20;38.40;;;;;;5056642;28;20302;-62
2024/03/11 00:36:56;;;;;;;;;;;23.20;38.30;;;;;;5056670;28;19924;-62
2024/03/11 00:39:23;;;;;;;;;;;23.20;38.30;;;;;;5056703;28;19960;-61
2024/03/11 00:41:51;;;;;;;;;;;23.20;38.30;;;;;;5056454;28;19932;-62
2024/03/11 00:44:22;;;;;;;;;;;23.20;38.30;;;;;;5055343;28;19979;-62
2024/03/11 00:46:49;;;;;;;;;;;23.20;38.30;;;;;;5056731;28;20408;-62
2024/03/11 00:49:16;;;;;;;;;;;23.20;38.30;;;;;;5056506;28;19932;-61
2024/03/11 00:51:44;;;;;;;;;;;23.20;38.30;;;;;;5056737;28;19975;-62
2024/03/11 00:54:11;;;;;;;;;;;23.20;38.30;;;;;;5056546;28;19928;-61
2024/03/11 00:56:39;;;;;;;;;;;23.20;38.30;;;;;;5056240;28;19932;-61
2024/03/11 00:59:06;;;;;;;;;;;23.20;38.30;;;;;;5056233;28;20378;-62
2024/03/11 01:01:33;;;;;;;;;;;23.20;38.30;;;;;;5056565;28;20260;-62
2024/03/11 01:04:00;;;;;;;;;;;23.20;38.30;;;;;;5056033;28;19982;-62
2024/03/11 01:06:29;;;;;;;;;;;23.20;38.30;;;;;;5056457;28;19925;-61
2024/03/11 01:08:55;;;;;;;;;;;23.20;38.30;;;;;;5056117;28;20411;-61
2024/03/11 01:11:23;;;;;;;;;;;23.20;38.30;;;;;;5056408;28;20267;-62
2024/03/11 01:13:50;;;;;;;;;;;23.20;38.40;;;;;;5056119;28;20023;-62
2024/03/11 01:16:17;;;;;;;;;;;23.20;38.40;;;;;;5056123;28;19929;-61
2024/03/11 01:18:45;;;;;;;;;;;23.20;38.40;;;;;;5055778;28;20015;-62
2024/03/11 01:21:17;;;;;;;;;;;23.20;38.40;;;;;;5055854;28;20382;-62
2024/03/11 01:23:47;;;;;;;;;;;23.20;38.40;;;;;;5056080;28;20374;-62
2024/03/11 01:26:14;;;;;;;;;;;23.10;38.40;;;;;;5055612;28;20020;-62
2024/03/11 01:28:41;;;;;;;;;;;23.10;38.40;;;;;;5055959;28;19929;-64
2024/03/11 01:31:10;;;;;;;;;;;23.10;38.50;;;;;;5055906;28;19925;-62
2024/03/11 01:33:37;;;;;;;;;;;23.10;38.40;;;;;;5055609;28;20378;-65
2024/03/11 01:36:04;;;;;;;;;;;23.10;38.50;;;;;;5055954;28;19932;-65
2024/03/11 01:38:31;;;;;;;;;;;23.10;38.50;;;;;;5055507;28;19924;-62
2024/03/11 01:40:58;;;;;;;;;;;23.10;38.50;;;;;;5055445;28;19924;-62
2024/03/11 01:43:25;;;;;;;;;;;23.10;38.50;;;;;;5055235;28;19951;-62
2024/03/11 01:45:53;;;;;;;;;;;23.10;38.50;;;;;;5054586;28;19929;-62
2024/03/11 01:48:20;;;;;;;;;;;23.10;38.50;;;;;;5055287;28;19978;-62
2024/03/11 01:50:47;;;;;;;;;;;23.10;38.50;;;;;;5055499;28;19932;-66
2024/03/11 01:53:15;;;;;;;;;;;23.10;38.40;;;;;;5055433;28;19979;-62
2024/03/11 01:55:43;;;;;;;;;;;23.10;38.50;;;;;;5055307;28;19935;-62
2024/03/11 01:58:10;;;;;;;;;;;23.10;38.40;;;;;;5055227;28;19972;-62
2024/03/11 02:00:37;;;;;;;;;;;23.10;38.50;;;;;;5055133;28;20290;-62
2024/03/11 02:03:06;;;;;;;;;;;23.10;38.50;;;;;;5054957;28;19925;-62
2024/03/11 02:05:40;;;;;;;;;;;23.10;38.40;;;;;;5055336;28;19932;-62
2024/03/11 02:08:08;;;;;;;;;;;23.10;38.40;;;;;;5054958;28;19924;-62
2024/03/11 02:10:36;;;;;;;;;;;23.10;38.50;;;;;;5055083;28;19925;-62
2024/03/11 02:13:04;;;;;;;;;;;23.10;38.50;;;;;;5054801;28;19928;-62
2024/03/11 02:15:31;;;;;;;;;;;23.10;38.50;;;;;;5053970;28;20297;-62
2024/03/11 02:17:58;;;;;;;;;;;23.10;38.50;;;;;;5054698;28;19925;-62
2024/03/11 02:20:26;;;;;;;;;;;23.10;38.50;;;;;;5055039;28;20016;-62
2024/03/11 02:22:55;;;;;;;;;;;23.10;38.50;;;;;;5054824;28;20358;-62
2024/03/11 02:25:26;;;;;;;;;;;23.10;38.50;;;;;;5054373;28;20342;-62
2024/03/11 02:27:55;;;;;;;;;;;23.10;38.50;;;;;;5054442;28;19925;-62
2024/03/11 02:30:22;;;;;;;;;;;23.00;38.50;;;;;;5054944;28;19929;-62
2024/03/11 02:32:49;;;;;;;;;;;23.10;38.60;;;;;;5054443;28;19970;-62
2024/03/11 02:35:17;;;;;;;;;;;23.10;38.60;;;;;;5054769;28;19929;-62
2024/03/11 02:37:44;;;;;;;;;;;23.00;38.60;;;;;;5054302;28;19975;-62
2024/03/11 02:40:14;;;;;;;;;;;23.00;38.60;;;;;;5054679;28;19932;-62
2024/03/11 02:42:41;;;;;;;;;;;23.00;38.60;;;;;;5054235;28;19971;-62
2024/03/11 02:45:09;;;;;;;;;;;23.00;38.60;;;;;;5054150;28;19925;-62
2024/03/11 02:47:36;;;;;;;;;;;23.00;38.60;;;;;;5054164;28;20023;-62
2024/03/11 02:50:07;;;;;;;;;;;23.00;38.70;;;;;;5054137;28;20275;-62
2024/03/11 02:52:36;;;;;;;;;;;23.00;38.70;;;;;;5054345;28;20286;-62
2024/03/11 02:55:04;;;;;;;;;;;23.00;38.70;;;;;;5054050;28;19986;-62
2024/03/11 02:57:32;;;;;;;;;;;23.00;38.70;;;;;;5053900;28;20293;-62
2024/03/11 02:59:59;;;;;;;;;;;23.00;38.70;;;;;;5053795;28;19925;-62
2024/03/11 03:02:27;;;;;;;;;;;23.00;38.60;;;;;;5053867;28;19925;-62
2024/03/11 03:04:55;;;;;;;;;;;23.00;38.60;;;;;;5053854;28;19979;-62
2024/03/11 03:07:25;;;;;;;;;;;23.10;38.70;;;;;;5053736;28;20408;-62
2024/03/11 03:09:52;;;;;;;;;;;23.10;38.70;;;;;;5054193;28;19925;-62
2024/03/11 03:12:20;;;;;;;;;;;23.00;38.60;;;;;;5053709;28;19948;-62
2024/03/11 03:14:47;;;;;;;;;;;23.10;38.70;;;;;;5053972;28;19978;-62
2024/03/11 03:17:14;;;;;;;;;;;23.00;38.60;;;;;;5054008;28;19924;-62
2024/03/11 03:19:41;;;;;;;;;;;23.00;38.60;;;;;;5053802;28;19925;-62
2024/03/11 03:22:08;;;;;;;;;;;23.10;38.70;;;;;;5053353;28;19924;-62
2024/03/11 03:24:35;;;;;;;;;;;23.00;38.60;;;;;;5053513;28;20011;-62
2024/03/11 03:27:02;;;;;;;;;;;23.10;38.70;;;;;;5053308;28;19925;-62
2024/03/11 03:29:30;;;;;;;;;;;23.00;38.60;;;;;;5053582;28;19978;-62
2024/03/11 03:31:57;;;;;;;;;;;23.00;38.60;;;;;;5053357;28;19931;-62
2024/03/11 03:34:24;;;;;;;;;;;23.00;38.70;;;;;;5053256;28;19979;-62
2024/03/11 03:36:51;;;;;;;;;;;23.00;38.70;;;;;;5053729;28;20012;-62
2024/03/11 03:39:18;;;;;;;;;;;23.00;38.70;;;;;;5053311;28;19925;-62
2024/03/11 03:41:45;;;;;;;;;;;23.00;38.70;;;;;;5053295;28;20320;-62
2024/03/11 03:44:12;;;;;;;;;;;23.00;38.70;;;;;;5053512;28;20293;-63
2024/03/11 03:46:39;;;;;;;;;;;23.00;38.70;;;;;;5053498;28;20008;-62
2024/03/11 03:49:07;;;;;;;;;;;23.00;38.70;;;;;;5053311;28;20362;-61
2024/03/11 03:51:34;;;;;;;;;;;23.00;38.80;;;;;;5053610;28;19925;-62
2024/03/11 03:54:01;;;;;;;;;;;23.00;38.80;;;;;;5053400;28;19978;-62
2024/03/11 03:56:30;;;;;;;;;;;23.00;38.80;;;;;;5053198;28;19925;-62
2024/03/11 03:58:57;;;;;;;;;;;23.00;38.80;;;;;;5052878;28;19931;-62
2024/03/11 04:01:24;;;;;;;;;;;22.90;38.80;;;;;;5053487;28;19925;-62
2024/03/11 04:03:51;;;;;;;;;;;22.90;38.80;;;;;;5053235;28;19925;-62
2024/03/11 04:06:18;;;;;;;;;;;23.00;38.80;;;;;;5053457;28;19932;-62
2024/03/11 04:08:45;;;;;;;;;;;23.00;38.80;;;;;;5056367;28;20278;-62
2024/03/11 04:11:12;;;;;;;;;;;23.00;38.80;;;;;;5057370;28;19925;-62
2024/03/11 04:13:39;;;;;;;;;;;23.00;38.80;;;;;;5057044;28;19986;-62
2024/03/11 04:16:07;;;;;;;;;;;23.00;38.80;;;;;;5057035;28;19928;-62
2024/03/11 04:18:34;;;;;;;;;;;23.00;38.70;;;;;;5056481;28;20408;-62
2024/03/11 04:21:05;;;;;;;;;;;23.00;38.80;;;;;;5057412;28;20267;-62
2024/03/11 04:23:33;;;;;;;;;;;23.00;38.80;;;;;;5057018;28;19971;-62
2024/03/11 04:26:01;;;;;;;;;;;23.00;38.80;;;;;;5056879;28;19948;-63
2024/03/11 04:28:28;;;;;;;;;;;23.00;38.80;;;;;;5056815;28;19925;-62
2024/03/11 04:30:56;;;;;;;;;;;23.00;38.80;;;;;;5056678;28;19952;-62
2024/03/11 04:33:23;;;;;;;;;;;23.00;38.80;;;;;;5056593;28;19932;-62
2024/03/11 04:35:50;;;;;;;;;;;23.00;38.80;;;;;;5057059;28;20452;-62
2024/03/11 04:38:17;;;;;;;;;;;22.90;38.80;;;;;;5056229;28;19982;-62
2024/03/11 04:40:47;;;;;;;;;;;23.00;38.80;;;;;;5056539;28;20378;-62
2024/03/11 04:43:14;;;;;;;;;;;23.00;38.70;;;;;;5056025;28;19929;-62
2024/03/11 04:45:41;;;;;;;;;;;23.00;38.70;;;;;;5056575;28;19925;-62
2024/03/11 04:48:09;;;;;;;;;;;23.00;38.60;;;;;;5056334;28;19964;-62
2024/03/11 04:50:40;;;;;;;;;;;23.00;38.60;;;;;;5056398;28;19925;-62
2024/03/11 04:53:10;;;;;;;;;;;23.00;38.50;;;;;;5055786;28;19933;-62
2024/03/11 04:55:37;;;;;;;;;;;23.00;38.50;;;;;;5055795;28;20281;-62
2024/03/11 04:58:04;;;;;;;;;;;23.00;38.50;;;;;;5055003;28;20059;-62
2024/03/11 05:00:31;;;;;;;;;;;23.00;38.50;;;;;;5056357;28;19925;-62
2024/03/11 05:03:00;;;;;;;;;;;23.00;39.10;;;;;;5054635;28;19925;-62
2024/03/11 05:05:29;;;;;;;;;;;23.00;38.50;;;;;;5054833;28;19929;-62
2024/03/11 05:07:57;;;;;;;;;;;23.00;38.50;;;;;;5056351;28;20028;-62
2024/03/11 05:10:24;;;;;;;;;;;23.00;38.60;;;;;;5056156;28;19929;-63
2024/03/11 05:12:51;;;;;;;;;;;23.00;38.50;;;;;;5055781;28;19976;-62
2024/03/11 05:15:18;;;;;;;;;;;23.00;38.60;;;;;;5055832;28;19975;-62
2024/03/11 05:17:45;;;;;;;;;;;23.00;38.50;;;;;;5055983;28;20019;-62
2024/03/11 05:20:14;;;;;;;;;;;23.00;38.60;;;;;;5055611;28;19975;-62
2024/03/11 05:22:42;;;;;;;;;;;23.00;38.50;;;;;;5056114;28;20399;-62
2024/03/11 05:25:12;;;;;;;;;;;23.00;38.50;;;;;;5055923;28;20290;-62
2024/03/11 05:27:39;;;;;;;;;;;23.00;38.50;;;;;;5055660;28;20011;-62
2024/03/11 05:30:07;;;;;;;;;;;23.00;38.60;;;;;;5037904;28;19924;-65
2024/03/11 05:32:34;;;;;;;;;;;23.00;38.60;;;;;;5054865;28;20019;-62
2024/03/11 05:35:01;;;;;;;;;;;23.00;38.60;;;;;;5043156;28;19932;-62
2024/03/11 05:37:28;;;;;;;;;;;23.00;38.60;;;;;;5035120;28;20371;-62
2024/03/11 05:39:55;;;;;;;;;;;23.00;38.60;;;;;;5041941;28;19928;-62
2024/03/11 05:42:22;;;;;;;;;;;23.00;38.60;;;;;;5054796;28;20345;-62
2024/03/11 05:44:49;;;;;;;;;;;23.00;38.60;;;;;;5055007;28;19925;-62
2024/03/11 05:47:16;;;;;;;;;;;23.00;38.70;;;;;;5055188;28;19924;-62
2024/03/11 05:49:43;;;;;;;;;;;23.00;38.70;;;;;;5055152;28;19925;-62
2024/03/11 05:52:10;;;;;;;;;;;23.10;38.80;;;;;;5054925;28;19976;-63
2024/03/11 05:54:50;;;;;;;;;;;23.00;38.70;;;;;;5053952;28;20027;-64
2024/03/11 05:57:29;;;;;;;;;;;23.10;38.80;;;;;;5037089;28;19940;-63
2024/03/11 05:59:57;;;;;;;;;;;23.10;38.70;;;;;;5054550;28;20438;-63
2024/03/11 06:02:25;;;;;;;;;;;23.00;38.70;;;;;;5053809;28;19979;-62
2024/03/11 06:04:52;;;;;;;;;;;23.10;38.70;;;;;;5052864;28;19978;-62
2024/03/11 06:07:22;;;;;;;;;;;23.10;38.70;;;;;;5053331;28;19932;-62
2024/03/11 06:09:51;;;;;;;;;;;23.10;38.70;;;;;;5054929;28;19925;-62
2024/03/11 06:12:21;;;;;;;;;;;23.00;38.80;;;;;;5053592;28;19932;-62
2024/03/11 06:14:49;;;;;;;;;;;23.10;38.80;;;;;;5054486;28;19925;-63
2024/03/11 06:17:16;;;;;;;;;;;23.10;38.90;;;;;;5052666;28;20035;-64
2024/03/11 06:19:44;;;;;;;;;;;23.10;39.00;;;;;;5050206;28;20371;-69
2024/03/11 06:22:15;;;;;;;;;;;23.10;39.10;;;;;;5050769;28;19948;-68
2024/03/11 06:24:42;;;;;;;;;;;23.20;39.30;;;;;;5050534;28;20353;-64
2024/03/11 06:27:09;;;;;;;;;;;23.20;39.40;;;;;;5047149;28;19925;-66
2024/03/11 06:29:36;;;;;;;;;;;23.20;39.50;;;;;;5051402;28;19931;-66
2024/03/11 06:32:06;;;;;;;;;;;23.20;39.60;;;;;;5053543;28;19925;-63
2024/03/11 06:34:34;;;;;;;;;;;23.30;40.00;;;;;;5050589;28;19933;-63
2024/03/11 06:37:02;;;;;;;;;;;23.30;40.00;;;;;;5041675;28;19971;-62
2024/03/11 06:39:31;;;;;;;;;;;23.40;40.10;;;;;;5024396;28;20023;-62
2024/03/11 06:42:00;;;;;;;;;;;23.40;40.10;;;;;;5045882;28;19975;-62
2024/03/11 06:44:28;;;;;;;;;;;23.40;40.00;;;;;;5047745;28;20011;-63
2024/03/11 06:47:08;;;;;;;;;;;23.50;40.10;;;;;;5030160;28;19936;-62
2024/03/11 06:49:36;;;;;;;;;;;23.60;40.00;;;;;;5046017;28;19971;-62
2024/03/11 06:52:06;;;;;;;;;;;23.60;40.10;;;;;;5046374;28;20335;-63
2024/03/11 06:54:34;;;;;;;;;;;23.60;39.90;;;;;;5045520;28;20352;-64
2024/03/11 06:57:01;;;;;;;;;;;23.60;39.90;;;;;;5046233;28;19981;-63
2024/03/11 06:59:31;;;;;;;;;;;23.70;39.90;;;;;;5041417;28;20397;-65
2024/03/11 07:01:58;;;;;;;;;;;23.70;40.60;;;;;;5039707;28;20455;-64
2024/03/11 07:04:25;;;;;;;;;;;23.80;40.20;;;;;;5043920;28;19932;-68
2024/03/11 07:06:53;;;;;;;;;;;23.80;40.30;;;;;;5045463;28;20712;-65
2024/03/11 07:09:19;;;;;;;;;;;23.90;40.20;;;;;;5042454;28;19933;-62
2024/03/11 07:11:46;;;;;;;;;;;23.90;40.30;;;;;;5039925;28;20020;-65
2024/03/11 07:14:13;;;;;;;;;;;24.00;40.20;;;;;;5046518;28;19999;-60
2024/03/11 07:16:43;;;;;;;;;;;24.00;40.20;;;;;;5045903;28;20290;-59
2024/03/11 07:19:10;;;;;;;;;;;24.10;40.30;;;;;;5037278;28;20027;-60
2024/03/11 07:21:38;;;;;;;;;;;24.10;40.20;;;;;;5024526;28;19971;-61
2024/03/11 07:24:06;;;;;;;;;;;24.10;40.00;;;;;;5041708;28;19940;-60
2024/03/11 07:26:33;;;;;;;;;;;24.20;40.00;;;;;;5046499;28;19983;-61
2024/03/11 07:29:00;;;;;;;;;;;24.20;39.80;;;;;;5042799;28;20010;-61
2024/03/11 07:31:27;;;;;;;;;;;24.20;39.70;;;;;;5040592;28;19979;-61
2024/03/11 07:33:54;;;;;;;;;;;24.20;39.60;;;;;;5036623;28;19933;-61
2024/03/11 07:36:21;;;;;;;;;;;24.30;39.50;;;;;;5037593;28;19932;-61
2024/03/11 07:38:49;;;;;;;;;;;24.30;39.40;;;;;;5040151;28;19933;-60
2024/03/11 07:41:16;;;;;;;;;;;24.30;39.40;;;;;;5047709;28;19932;-61
2024/03/11 07:43:43;;;;;;;;;;;24.30;39.30;;;;;;5044262;28;19931;-63
2024/03/11 07:46:11;;;;;;;;;;;24.30;39.50;;;;;;5043425;28;19932;-61
2024/03/11 07:48:41;;;;;;;;;;;24.30;39.60;;;;;;5047517;28;19929;-62
2024/03/11 07:51:13;;;;;;;;;;;24.30;39.60;;;;;;5047520;28;19925;-62
2024/03/11 07:53:40;;;;;;;;;;;24.40;39.80;;;;;;5045323;28;19952;-62
2024/03/11 07:56:09;;;;;;;;;;;24.40;39.90;;;;;;5040938;28;19924;-62
2024/03/11 07:58:36;;;;;;;;;;;24.40;39.80;;;;;;5039301;28;20382;-61
2024/03/11 08:01:03;;;;;;;;;;;24.40;39.70;;;;;;5043012;28;19939;-61
2024/03/11 08:03:30;;;;;;;;;;;24.40;39.60;;;;;;5043210;28;19931;-60
2024/03/11 08:05:58;;;;;;;;;;;24.50;39.60;;;;;;5042237;28;19932;-59
2024/03/11 08:08:26;;;;;;;;;;;24.50;39.50;;;;;;5046392;28;20345;-60
2024/03/11 08:10:53;;;;;;;;;;;24.50;39.40;;;;;;5043968;28;19932;-61
2024/03/11 08:13:21;;;;;;;;;;;24.60;39.40;;;;;;5040259;28;19929;-60
2024/03/11 08:15:48;;;;;;;;;;;24.60;39.30;;;;;;5042101;28;19936;-62
2024/03/11 08:18:16;;;;;;;;;;;24.60;39.40;;;;;;5040113;28;19925;-60
2024/03/11 08:20:44;;;;;;;;;;;24.70;39.40;;;;;;5043083;28;19971;-61
2024/03/11 08:23:11;;;;;;;;;;;24.70;39.70;;;;;;5042942;28;19940;-61
2024/03/11 08:25:44;;;;;;;;;;;24.70;39.80;;;;;;5044318;28;19932;-60
2024/03/11 08:28:14;;;;;;;;;;;24.70;39.90;;;;;;5040687;28;19928;-62
2024/03/11 08:30:43;;;;;;;;;;;24.70;39.80;;;;;;5044324;28;19935;-62
2024/03/11 08:33:12;;;;;;;;;;;24.70;39.80;;;;;;5038057;28;19951;-65
2024/03/11 08:35:41;;;;;;;;;;;24.70;39.80;;;;;;5045763;28;20012;-60
2024/03/11 08:38:08;;;;;;;;;;;24.80;39.80;;;;;;5041114;28;19933;-62
2024/03/11 08:40:37;;;;;;;;;;;24.80;40.00;;;;;;5044298;28;19987;-63
2024/03/11 08:43:05;;;;;;;;;;;24.80;40.30;;;;;;5048123;28;20309;-62
2024/03/11 08:45:33;;;;;;;;;;;24.80;40.40;;;;;;5040959;28;19928;-60
2024/03/11 08:48:00;;;;;;;;;;;24.80;40.40;;;;;;5038488;28;19964;-58
2024/03/11 08:50:27;;;;;;;;;;;24.80;40.40;;;;;;5042092;28;19936;-61
2024/03/11 08:52:54;;;;;;;;;;;24.80;40.50;;;;;;5037807;28;19937;-60
2024/03/11 08:55:21;;;;;;;;;;;24.80;40.50;;;;;;5045279;28;19963;-59
2024/03/11 08:57:53;;;;;;;;;;;24.80;40.50;;;;;;5043645;28;19970;-60
2024/03/11 09:00:27;;;;;;;;;;;24.80;41.00;;;;;;5047313;28;19933;-60
2024/03/11 09:02:54;;;;;;;;;;;24.80;40.30;;;;;;5045545;28;20012;-61
2024/03/11 09:05:22;;;;;;;;;;;24.80;40.30;;;;;;5044978;28;19940;-60
2024/03/11 09:07:51;;;;;;;;;;;24.80;40.30;;;;;;5027690;28;19933;-60
2024/03/11 09:10:18;;;;;;;;;;;24.80;40.20;;;;;;5045532;28;19932;-61
2024/03/11 09:12:45;;;;;;;;;;;24.90;40.20;;;;;;5047811;28;19933;-61
2024/03/11 09:15:15;;;;;;;;;;;24.90;40.20;;;;;;5045736;28;19931;-61
2024/03/11 09:17:46;;;;;;;;;;;24.90;40.10;;;;;;5040641;28;19939;-60
2024/03/11 09:20:17;;;;;;;;;;;24.90;40.00;;;;;;5042521;28;19965;-60
2024/03/11 09:22:47;;;;;;;;;;;24.90;40.60;;;;;;5043879;28;20015;-60
2024/03/11 09:25:23;;;;;;;;;;;25.00;40.10;;;;;;5045498;28;20012;-62
2024/03/11 09:27:53;;;;;;;;;;;25.00;40.10;;;;;;5043714;28;19925;-62
2024/03/11 09:30:20;;;;;;;;;;;25.10;39.90;;;;;;5041720;28;19937;-62
2024/03/11 09:32:49;;;;;;;;;;;25.10;39.80;;;;;;5047450;28;19939;-64
2024/03/11 09:35:17;;;;;;;;;;;25.10;39.60;;;;;;5027041;28;19929;-62
2024/03/11 09:37:45;;;;;;;;;;;25.10;39.60;;;;;;5047213;28;20015;-63
2024/03/11 09:40:16;;;;;;;;;;;25.10;39.40;;;;;;5044354;28;20003;-64
2024/03/11 09:42:47;;;;;;;;;;;25.10;39.40;;;;;;5046285;28;20015;-65
2024/03/11 09:45:17;;;;;;;;;;;25.10;39.40;;;;;;5046493;28;20466;-62
2024/03/11 09:47:52;;;;;;;;;;;25.10;39.40;;;;;;5046637;28;19935;-63
2024/03/11 09:50:20;;;;;;;;;;;25.10;39.50;;;;;;5044119;28;19931;-60
2024/03/11 09:52:47;;;;;;;;;;;25.10;39.50;;;;;;5048163;28;20610;-59
2024/03/11 09:55:14;;;;;;;;;;;25.10;39.50;;;;;;5041725;28;20294;-60
2024/03/11 09:57:45;;;;;;;;;;;25.10;39.50;;;;;;5045152;28;20378;-62
2024/03/11 10:00:15;;;;;;;;;;;25.10;39.60;;;;;;5045333;28;19940;-61
2024/03/11 10:02:51;;;;;;;;;;;25.00;39.60;;;;;;5046310;28;19937;-63
2024/03/11 10:05:19;;;;;;;;;;;25.00;39.70;;;;;;5048187;28;19933;-61
2024/03/11 10:07:48;;;;;;;;;;;25.00;39.90;;;;;;5048788;28;19972;-62
2024/03/11 10:10:16;;;;;;;;;;;25.00;40.00;;;;;;5044115;28;19928;-62
2024/03/11 10:12:52;;;;;;;;;;;25.00;40.20;;;;;;5047025;28;19980;-59
2024/03/11 10:15:30;;;;;;;;;;;25.10;40.30;;;;;;5048386;28;19932;-61
2024/03/11 10:18:27;;;;;;;;;;;25.10;40.40;;;;;;5045368;28;19929;-60
2024/03/11 10:20:56;;;;;;;;;;;25.10;40.30;;;;;;5046757;28;19991;-60
2024/03/11 10:23:25;;;;;;;;;;;25.00;40.20;;;;;;5044993;28;19928;-64
2024/03/11 10:26:12;;;;;;;;;;;25.10;40.20;;;;;;5046190;28;20012;-61
2024/03/11 10:28:39;;;;;;;;;;;25.10;40.10;;;;;;5042775;28;20734;-60
2024/03/11 10:31:21;;;;;;;;;;;25.10;40.00;;;;;;5045420;28;20445;-61
2024/03/11 10:33:51;;;;;;;;;;;25.10;39.90;;;;;;5049393;28;19986;-60
2024/03/11 10:36:19;;;;;;;;;;;25.20;39.90;;;;;;5046168;28;19933;-61
2024/03/11 10:38:47;;;;;;;;;;;25.20;39.80;;;;;;5047906;28;20357;-60
2024/03/11 10:41:20;;;;;;;;;;;25.20;39.70;;;;;;5046266;28;19936;-60
2024/03/11 10:43:52;;;;;;;;;;;25.20;39.70;;;;;;5044657;28;20006;-61
2024/03/11 10:46:20;;;;;;;;;;;25.30;39.70;;;;;;5044386;28;19933;-60
2024/03/11 10:48:48;;;;;;;;;;;25.30;39.60;;;;;;5047393;28;20283;-59
2024/03/11 10:51:19;;;;;;;;;;;25.40;39.40;;;;;;5046348;28;20023;-61
2024/03/11 10:53:47;;;;;;;;;;;25.50;39.40;;;;;;5029716;28;19929;-60
2024/03/11 10:56:19;;;;;;;;;;;25.50;39.10;;;;;;5048760;28;19974;-61
2024/03/11 10:58:52;;;;;;;;;;;25.60;39.10;;;;;;5047991;28;19999;-61
2024/03/11 11:01:22;;;;;;;;;;;25.60;39.00;;;;;;5047740;28;19925;-62
2024/03/11 11:03:52;;;;;;;;;;;25.70;39.70;;;;;;5049825;28;20016;-62
2024/03/11 11:06:27;;;;;;;;;;;25.70;39.00;;;;;;5034852;28;19983;-63
2024/03/11 11:08:54;;;;;;;;;;;25.70;39.00;;;;;;5046215;28;19925;-59
2024/03/11 11:11:21;;;;;;;;;;;25.70;39.00;;;;;;5050336;28;20019;-60
2024/03/11 11:13:53;;;;;;;;;;;25.70;39.00;;;;;;5047395;28;20438;-59
2024/03/11 11:16:25;;;;;;;;;;;25.70;39.00;;;;;;5046779;28;20267;-59
2024/03/11 11:18:54;;;;;;;;;;;25.60;39.20;;;;;;5044280;28;19925;-59
2024/03/11 11:21:23;;;;;;;;;;;25.70;39.20;;;;;;5046309;28;20325;-59
2024/03/11 11:23:51;;;;;;;;;;;25.70;39.10;;;;;;5046741;28;19939;-59
2024/03/11 11:26:38;;;;;;;;;;;25.70;39.20;;;;;;5045353;28;20336;-60
2024/03/11 11:29:05;;;;;;;;;;;25.70;39.10;;;;;;5048518;28;20359;-63
2024/03/11 11:31:34;;;;;;;;;;;25.70;39.00;;;;;;5043708;28;20346;-62
2024/03/11 11:34:04;;;;;;;;;;;25.70;39.00;;;;;;5046310;28;19944;-61
2024/03/11 11:36:51;;;;;;;;;;;25.80;39.00;;;;;;5043518;28;19936;-61
2024/03/11 11:39:28;;;;;;;;;;;25.80;39.10;;;;;;5031414;28;20713;-61
2024/03/11 11:41:57;;;;;;;;;;;25.70;38.90;;;;;;5047157;28;19933;-61
2024/03/11 11:44:44;;;;;;;;;;;25.70;39.00;;;;;;5046573;28;20428;-60
2024/03/11 11:47:19;;;;;;;;;;;25.70;39.60;;;;;;5043724;28;19944;-61
2024/03/11 11:49:47;;;;;;;;;;;25.70;39.00;;;;;;5043968;28;20024;-60
2024/03/11 11:52:14;;;;;;;;;;;25.70;39.10;;;;;;5040143;28;20306;-61
2024/03/11 11:54:42;;;;;;;;;;;25.70;39.10;;;;;;5044110;28;20421;-60
2024/03/11 11:57:18;;;;;;;;;;;25.60;39.10;;;;;;5043642;28;19956;-61
2024/03/11 11:59:57;;;;;;;;;;;25.60;39.10;;;;;;5046003;28;19939;-60
2024/03/11 12:02:28;;;;;;;;;;;25.60;39.20;;;;;;5043063;28;19972;-62
2024/03/11 12:04:56;;;;;;;;;;;25.50;39.40;;;;;;5052109;28;20023;-61
2024/03/11 12:07:24;;;;;;;;;;;25.50;39.30;;;;;;5047478;28;20345;-59
2024/03/11 12:09:52;;;;;;;;;;;25.50;39.20;;;;;;5047759;28;19932;-66
2024/03/11 12:12:27;;;;;;;;;;;25.50;39.20;;;;;;5050518;28;20033;-62
2024/03/11 12:14:54;;;;;;;;;;;25.50;39.30;;;;;;5049813;28;20278;-64
2024/03/11 12:17:29;;;;;;;;;;;25.50;39.30;;;;;;5050994;28;20311;-64
2024/03/11 12:20:18;;;;;;;;;;;25.50;39.30;;;;;;5048524;28;20008;-64
2024/03/11 12:22:47;;;;;;;;;;;25.40;39.20;;;;;;5048261;28;19925;-65
2024/03/11 12:25:15;;;;;;;;;;;25.40;39.20;;;;;;5042230;28;20132;-65
2024/03/11 12:27:43;;;;;;;;;;;25.40;39.20;;;;;;5046047;28;19960;-65
2024/03/11 12:30:18;;;;;;;;;;;25.40;39.20;;;;;;5047818;28;20002;-64
2024/03/11 12:33:04;;;;;;;;;;;25.40;39.30;;;;;;5043642;28;19931;-65
2024/03/11 12:35:33;;;;;;;;;;;25.40;39.30;;;;;;5046481;28;19929;-64
2024/03/11 12:38:01;;;;;;;;;;;25.30;39.20;;;;;;5051071;28;20051;-65
2024/03/11 12:40:34;;;;;;;;;;;25.30;39.20;;;;;;5048811;28;20400;-63
2024/03/11 12:43:20;;;;;;;;;;;25.30;39.30;;;;;;5047634;28;19939;-64
2024/03/11 12:45:51;;;;;;;;;;;25.30;39.30;;;;;;5049183;28;19933;-62
2024/03/11 12:48:19;;;;;;;;;;;25.30;39.40;;;;;;5047465;28;19932;-62
2024/03/11 12:50:46;;;;;;;;;;;25.30;39.50;;;;;;5048506;28;19932;-63
2024/03/11 12:53:14;;;;;;;;;;;25.30;39.40;;;;;;5048284;28;19933;-65
2024/03/11 12:55:42;;;;;;;;;;;25.30;39.40;;;;;;5047708;28;20024;-64
2024/03/11 12:58:14;;;;;;;;;;;25.40;39.50;;;;;;5044977;28;19929;-62
2024/03/11 13:00:45;;;;;;;;;;;25.30;39.50;;;;;;5046104;28;21605;-62
2024/03/11 13:03:16;;;;;;;;;;;25.30;39.50;;;;;;5047832;28;19947;-65
2024/03/11 13:06:00;;;;;;;;;;;25.30;39.40;;;;;;5051996;28;19966;-66
2024/03/11 13:08:29;;;;;;;;;;;25.30;39.20;;;;;;5029348;28;20912;-63
2024/03/11 13:11:09;;;;;;;;;;;25.10;39.30;;;;;;5048619;28;20459;-63
2024/03/11 13:13:37;;;;;;;;;;;25.10;39.50;;;;;;5047003;28;19944;-63
2024/03/11 13:16:07;;;;;;;;;;;25.00;39.70;;;;;;5050568;28;19925;-63
2024/03/11 13:18:34;;;;;;;;;;;25.00;39.80;;;;;;5047623;28;19932;-65
2024/03/11 13:21:06;;;;;;;;;;;25.00;39.90;;;;;;5049513;28;19933;-64
2024/03/11 13:23:34;;;;;;;;;;;25.10;40.00;;;;;;5046823;28;19925;-65
2024/03/11 13:26:02;;;;;;;;;;;25.10;40.00;;;;;;5048068;28;19924;-65
2024/03/11 13:28:29;;;;;;;;;;;25.10;40.00;;;;;;5043758;28;19932;-62
2024/03/11 13:30:57;;;;;;;;;;;25.20;40.00;;;;;;5044976;28;19990;-63
2024/03/11 13:33:36;;;;;;;;;;;25.20;40.00;;;;;;5047130;28;19937;-63
2024/03/11 13:36:07;;;;;;;;;;;25.20;39.90;;;;;;5047818;28;19958;-63
2024/03/11 13:38:35;;;;;;;;;;;25.20;39.80;;;;;;5047122;28;20002;-62
2024/03/11 13:41:02;;;;;;;;;;;25.20;40.40;;;;;;5050668;28;19931;-61
2024/03/11 13:43:32;;;;;;;;;;;25.20;39.80;;;;;;5047159;28;19933;-62
2024/03/11 13:45:59;;;;;;;;;;;25.20;39.90;;;;;;5047322;28;19924;-61
2024/03/11 13:48:27;;;;;;;;;;;25.20;39.90;;;;;;5046106;28;19929;-61
2024/03/11 13:50:56;;;;;;;;;;;25.20;39.90;;;;;;5045753;28;19924;-61
2024/03/11 13:53:24;;;;;;;;;;;25.20;40.00;;;;;;5046390;28;19971;-61
2024/03/11 13:55:51;;;;;;;;;;;25.20;40.00;;;;;;5046799;28;19934;-63
2024/03/11 13:58:19;;;;;;;;;;;25.20;40.00;;;;;;5046105;28;19925;-63
2024/03/11 14:00:49;;;;;;;;;;;25.20;40.00;;;;;;5047079;28;19928;-62
2024/03/11 14:03:16;;;;;;;;;;;25.20;40.00;;;;;;5046846;28;19925;-62
2024/03/11 14:05:43;;;;;;;;;;;25.20;40.00;;;;;;5049139;28;19968;-62
2024/03/11 14:08:12;;;;;;;;;;;25.20;40.00;;;;;;5047230;28;20298;-62
2024/03/11 14:10:39;;;;;;;;;;;25.20;40.00;;;;;;5044984;28;19940;-63
2024/03/11 14:13:06;;;;;;;;;;;25.20;40.00;;;;;;5047716;28;20534;-62
2024/03/11 14:15:33;;;;;;;;;;;25.30;40.00;;;;;;5045893;28;19932;-64
2024/03/11 14:18:01;;;;;;;;;;;25.30;40.20;;;;;;5034026;28;19935;-65
2024/03/11 14:20:30;;;;;;;;;;;25.30;40.30;;;;;;5046342;28;20031;-62
2024/03/11 14:22:58;;;;;;;;;;;25.30;40.30;;;;;;5048429;28;19924;-63
2024/03/11 14:25:26;;;;;;;;;;;25.30;40.50;;;;;;5045749;28;19931;-61
2024/03/11 14:27:53;;;;;;;;;;;25.30;40.60;;;;;;5048547;28;19968;-67